Tarija, Bolivia
Current Conditions -  °F | °C
As of 2:00 PM on Monday 26 Jan 2015 (Local Time) from SLTJ Reporting Station
Few Clouds Few Clouds  
Wind Chill: 82°   Ceiling: Unl
Heat Index: 82°   Visibility: 6mi
Dew Point: 52°   Wind: 6mph
Humidity: 35%   Direction: 210°SSW
Pressure: 29.97"   Gusts: NA
Location:  21.53°S, 64.74°W
Report Text: SLTJ 261800Z 21005KT 9999 FEW036 28/11 Q1015
Loading
Personal Weather Stations






























Interactive Weather Map New forecast layout! Learn more

10-Day Weather Forecast

Advertisements
Track Severe Weather on mobile